sensor_id;sensor_type;location;lat;lon;timestamp;P1;durP1;ratioP1;P2;durP2;ratioP2
23586;SDS011;11971;51.148;4.104;2023-04-07T00:00:24;99.75;;;40.20;;
23586;SDS011;11971;51.148;4.104;2023-04-07T00:02:51;101.90;;;39.83;;
23586;SDS011;11971;51.148;4.104;2023-04-07T00:05:18;107.43;;;40.70;;
23586;SDS011;11971;51.148;4.104;2023-04-07T00:07:45;96.30;;;38.50;;
23586;SDS011;11971;51.148;4.104;2023-04-07T00:10:13;96.85;;;39.50;;
23586;SDS011;11971;51.148;4.104;2023-04-07T00:12:39;95.60;;;39.13;;
23586;SDS011;11971;51.148;4.104;2023-04-07T00:15:06;99.50;;;39.42;;
23586;SDS011;11971;51.148;4.104;2023-04-07T00:17:34;102.88;;;38.95;;
23586;SDS011;11971;51.148;4.104;2023-04-07T00:20:01;95.68;;;38.50;;
23586;SDS011;11971;51.148;4.104;2023-04-07T00:22:27;91.72;;;37.67;;
23586;SDS011;11971;51.148;4.104;2023-04-07T00:24:54;93.85;;;38.45;;
23586;SDS011;11971;51.148;4.104;2023-04-07T00:27:22;95.97;;;38.25;;
23586;SDS011;11971;51.148;4.104;2023-04-07T00:29:48;91.35;;;38.63;;
23586;SDS011;11971;51.148;4.104;2023-04-07T00:32:15;93.53;;;38.28;;
23586;SDS011;11971;51.148;4.104;2023-04-07T00:34:42;94.00;;;38.90;;
23586;SDS011;11971;51.148;4.104;2023-04-07T00:37:08;89.72;;;38.20;;
23586;SDS011;11971;51.148;4.104;2023-04-07T00:39:35;94.90;;;39.47;;
23586;SDS011;11971;51.148;4.104;2023-04-07T00:42:02;93.47;;;38.78;;
23586;SDS011;11971;51.148;4.104;2023-04-07T00:44:31;88.65;;;37.33;;
23586;SDS011;11971;51.148;4.104;2023-04-07T00:46:57;92.07;;;38.15;;
23586;SDS011;11971;51.148;4.104;2023-04-07T00:49:24;94.00;;;38.08;;
23586;SDS011;11971;51.148;4.104;2023-04-07T00:51:52;93.50;;;38.35;;
23586;SDS011;11971;51.148;4.104;2023-04-07T00:54:19;95.80;;;38.28;;
23586;SDS011;11971;51.148;4.104;2023-04-07T00:56:45;97.22;;;38.88;;
23586;SDS011;11971;51.148;4.104;2023-04-07T00:59:12;96.00;;;38.70;;
23586;SDS011;11971;51.148;4.104;2023-04-07T01:01:43;99.88;;;39.67;;
23586;SDS011;11971;51.148;4.104;2023-04-07T01:04:11;97.32;;;38.83;;
23586;SDS011;11971;51.148;4.104;2023-04-07T01:06:45;97.13;;;38.40;;
23586;SDS011;11971;51.148;4.104;2023-04-07T01:09:15;90.13;;;38.28;;
23586;SDS011;11971;51.148;4.104;2023-04-07T01:11:47;94.78;;;38.90;;
23586;SDS011;11971;51.148;4.104;2023-04-07T01:14:17;91.25;;;37.50;;
23586;SDS011;11971;51.148;4.104;2023-04-07T01:16:46;89.28;;;37.60;;
23586;SDS011;11971;51.148;4.104;2023-04-07T01:19:15;88.88;;;38.08;;
23586;SDS011;11971;51.148;4.104;2023-04-07T01:21:55;90.65;;;37.35;;
23586;SDS011;11971;51.148;4.104;2023-04-07T01:24:26;95.22;;;37.67;;
23586;SDS011;11971;51.148;4.104;2023-04-07T01:27:10;87.95;;;36.90;;
23586;SDS011;11971;51.148;4.104;2023-04-07T01:29:42;90.05;;;36.85;;
23586;SDS011;11971;51.148;4.104;2023-04-07T01:32:12;88.30;;;37.10;;
23586;SDS011;11971;51.148;4.104;2023-04-07T01:34:39;97.80;;;38.00;;
23586;SDS011;11971;51.148;4.104;2023-04-07T01:37:07;93.43;;;38.03;;
23586;SDS011;11971;51.148;4.104;2023-04-07T01:39:34;92.30;;;38.83;;
23586;SDS011;11971;51.148;4.104;2023-04-07T01:42:01;92.45;;;38.60;;
23586;SDS011;11971;51.148;4.104;2023-04-07T01:44:29;87.82;;;38.50;;
23586;SDS011;11971;51.148;4.104;2023-04-07T01:46:59;94.82;;;38.03;;
23586;SDS011;11971;51.148;4.104;2023-04-07T01:49:26;92.95;;;38.55;;
23586;SDS011;11971;51.148;4.104;2023-04-07T01:51:53;92.55;;;37.88;;
23586;SDS011;11971;51.148;4.104;2023-04-07T01:54:20;91.90;;;37.72;;
23586;SDS011;11971;51.148;4.104;2023-04-07T01:56:47;94.32;;;38.08;;
23586;SDS011;11971;51.148;4.104;2023-04-07T01:59:13;93.32;;;38.05;;
23586;SDS011;11971;51.148;4.104;2023-04-07T02:01:40;89.38;;;37.72;;
23586;SDS011;11971;51.148;4.104;2023-04-07T02:04:10;89.38;;;38.28;;
23586;SDS011;11971;51.148;4.104;2023-04-07T02:06:41;87.72;;;37.30;;
23586;SDS011;11971;51.148;4.104;2023-04-07T02:09:09;93.13;;;37.63;;
23586;SDS011;11971;51.148;4.104;2023-04-07T02:11:37;93.30;;;38.30;;
23586;SDS011;11971;51.148;4.104;2023-04-07T02:14:04;91.43;;;38.47;;
23586;SDS011;11971;51.148;4.104;2023-04-07T02:16:32;89.65;;;37.92;;
23586;SDS011;11971;51.148;4.104;2023-04-07T02:18:59;97.07;;;38.38;;
23586;SDS011;11971;51.148;4.104;2023-04-07T02:21:28;92.47;;;37.45;;
23586;SDS011;11971;51.148;4.104;2023-04-07T02:23:56;91.55;;;38.58;;
23586;SDS011;11971;51.148;4.104;2023-04-07T02:26:26;87.63;;;38.38;;
23586;SDS011;11971;51.148;4.104;2023-04-07T02:28:52;91.50;;;38.97;;
23586;SDS011;11971;51.148;4.104;2023-04-07T02:31:19;92.18;;;39.25;;
23586;SDS011;11971;51.148;4.104;2023-04-07T02:33:46;91.80;;;38.13;;
23586;SDS011;11971;51.148;4.104;2023-04-07T02:36:12;93.05;;;38.35;;
23586;SDS011;11971;51.148;4.104;2023-04-07T02:38:40;93.50;;;38.80;;
23586;SDS011;11971;51.148;4.104;2023-04-07T02:41:07;99.40;;;38.60;;
23586;SDS011;11971;51.148;4.104;2023-04-07T02:43:34;101.38;;;39.88;;
23586;SDS011;11971;51.148;4.104;2023-04-07T02:46:01;90.68;;;39.03;;
23586;SDS011;11971;51.148;4.104;2023-04-07T02:48:27;96.55;;;39.13;;
23586;SDS011;11971;51.148;4.104;2023-04-07T02:50:54;97.80;;;38.40;;
23586;SDS011;11971;51.148;4.104;2023-04-07T02:53:21;93.40;;;38.45;;
23586;SDS011;11971;51.148;4.104;2023-04-07T02:55:49;92.63;;;38.85;;
23586;SDS011;11971;51.148;4.104;2023-04-07T02:58:16;92.53;;;39.63;;
23586;SDS011;11971;51.148;4.104;2023-04-07T03:00:43;93.25;;;39.83;;
23586;SDS011;11971;51.148;4.104;2023-04-07T03:03:09;89.03;;;38.78;;
23586;SDS011;11971;51.148;4.104;2023-04-07T03:05:36;96.97;;;40.20;;
23586;SDS011;11971;51.148;4.104;2023-04-07T03:08:03;91.93;;;39.38;;
23586;SDS011;11971;51.148;4.104;2023-04-07T03:10:30;98.10;;;38.95;;
23586;SDS011;11971;51.148;4.104;2023-04-07T03:12:58;99.50;;;40.03;;
23586;SDS011;11971;51.148;4.104;2023-04-07T03:15:25;98.87;;;40.07;;
23586;SDS011;11971;51.148;4.104;2023-04-07T03:17:51;96.85;;;40.42;;
23586;SDS011;11971;51.148;4.104;2023-04-07T03:20:18;98.47;;;39.88;;
23586;SDS011;11971;51.148;4.104;2023-04-07T03:22:44;94.75;;;39.65;;
23586;SDS011;11971;51.148;4.104;2023-04-07T03:25:12;95.95;;;40.33;;
23586;SDS011;11971;51.148;4.104;2023-04-07T03:27:39;99.60;;;40.80;;
23586;SDS011;11971;51.148;4.104;2023-04-07T03:30:07;99.10;;;40.58;;
23586;SDS011;11971;51.148;4.104;2023-04-07T03:35:01;94.63;;;39.75;;
23586;SDS011;11971;51.148;4.104;2023-04-07T03:37:28;97.38;;;40.53;;
23586;SDS011;11971;51.148;4.104;2023-04-07T03:39:54;93.95;;;40.38;;
23586;SDS011;11971;51.148;4.104;2023-04-07T03:42:21;101.90;;;39.90;;
23586;SDS011;11971;51.148;4.104;2023-04-07T03:44:47;95.68;;;40.65;;
23586;SDS011;11971;51.148;4.104;2023-04-07T03:47:15;100.97;;;40.30;;
23586;SDS011;11971;51.148;4.104;2023-04-07T03:49:42;102.28;;;41.13;;
23586;SDS011;11971;51.148;4.104;2023-04-07T03:52:09;93.53;;;39.85;;
23586;SDS011;11971;51.148;4.104;2023-04-07T03:54:35;97.57;;;40.53;;
23586;SDS011;11971;51.148;4.104;2023-04-07T03:57:02;104.22;;;41.33;;
23586;SDS011;11971;51.148;4.104;2023-04-07T03:59:29;99.13;;;41.58;;
23586;SDS011;11971;51.148;4.104;2023-04-07T04:01:56;97.70;;;41.13;;
23586;SDS011;11971;51.148;4.104;2023-04-07T04:04:24;108.82;;;41.17;;
23586;SDS011;11971;51.148;4.104;2023-04-07T04:06:50;99.43;;;40.70;;
23586;SDS011;11971;51.148;4.104;2023-04-07T04:09:17;112.32;;;42.88;;
23586;SDS011;11971;51.148;4.104;2023-04-07T04:11:44;99.30;;;41.65;;
23586;SDS011;11971;51.148;4.104;2023-04-07T04:14:11;99.60;;;41.25;;
23586;SDS011;11971;51.148;4.104;2023-04-07T04:16:38;103.00;;;41.30;;
23586;SDS011;11971;51.148;4.104;2023-04-07T04:19:04;111.00;;;41.30;;
23586;SDS011;11971;51.148;4.104;2023-04-07T04:21:33;99.47;;;40.08;;
23586;SDS011;11971;51.148;4.104;2023-04-07T04:23:59;102.20;;;41.70;;
23586;SDS011;11971;51.148;4.104;2023-04-07T04:26:26;102.68;;;42.05;;
23586;SDS011;11971;51.148;4.104;2023-04-07T04:28:53;103.43;;;41.45;;
23586;SDS011;11971;51.148;4.104;2023-04-07T04:31:22;102.38;;;42.03;;
23586;SDS011;11971;51.148;4.104;2023-04-07T04:33:48;106.13;;;41.97;;
23586;SDS011;11971;51.148;4.104;2023-04-07T04:36:16;105.10;;;41.58;;
23586;SDS011;11971;51.148;4.104;2023-04-07T04:38:44;100.95;;;41.45;;
23586;SDS011;11971;51.148;4.104;2023-04-07T04:41:11;105.32;;;42.20;;
23586;SDS011;11971;51.148;4.104;2023-04-07T04:43:39;106.07;;;41.75;;
23586;SDS011;11971;51.148;4.104;2023-04-07T04:46:05;103.63;;;41.90;;
23586;SDS011;11971;51.148;4.104;2023-04-07T04:48:32;100.07;;;41.20;;
23586;SDS011;11971;51.148;4.104;2023-04-07T04:50:58;100.50;;;41.72;;
23586;SDS011;11971;51.148;4.104;2023-04-07T04:53:25;103.05;;;41.13;;
23586;SDS011;11971;51.148;4.104;2023-04-07T04:55:54;103.72;;;41.70;;
23586;SDS011;11971;51.148;4.104;2023-04-07T04:58:20;106.47;;;41.45;;
23586;SDS011;11971;51.148;4.104;2023-04-07T05:00:47;109.60;;;41.72;;
23586;SDS011;11971;51.148;4.104;2023-04-07T05:03:14;108.57;;;43.22;;
23586;SDS011;11971;51.148;4.104;2023-04-07T05:05:40;105.07;;;42.58;;
23586;SDS011;11971;51.148;4.104;2023-04-07T05:08:09;106.75;;;41.95;;
23586;SDS011;11971;51.148;4.104;2023-04-07T05:10:37;105.85;;;42.35;;
23586;SDS011;11971;51.148;4.104;2023-04-07T05:13:06;104.95;;;41.70;;
23586;SDS011;11971;51.148;4.104;2023-04-07T05:15:33;106.97;;;41.90;;
23586;SDS011;11971;51.148;4.104;2023-04-07T05:17:59;102.25;;;40.80;;
23586;SDS011;11971;51.148;4.104;2023-04-07T05:20:26;99.65;;;41.35;;
23586;SDS011;11971;51.148;4.104;2023-04-07T05:22:53;107.13;;;40.95;;
23586;SDS011;11971;51.148;4.104;2023-04-07T05:25:19;97.88;;;41.70;;
23586;SDS011;11971;51.148;4.104;2023-04-07T05:27:46;99.40;;;41.05;;
23586;SDS011;11971;51.148;4.104;2023-04-07T05:30:14;98.28;;;41.05;;
23586;SDS011;11971;51.148;4.104;2023-04-07T05:32:41;104.88;;;41.55;;
23586;SDS011;11971;51.148;4.104;2023-04-07T05:35:08;107.53;;;41.85;;
23586;SDS011;11971;51.148;4.104;2023-04-07T05:37:35;103.63;;;41.72;;
23586;SDS011;11971;51.148;4.104;2023-04-07T05:40:02;102.13;;;41.92;;
23586;SDS011;11971;51.148;4.104;2023-04-07T05:42:29;104.18;;;41.03;;
23586;SDS011;11971;51.148;4.104;2023-04-07T05:44:55;104.78;;;41.20;;
23586;SDS011;11971;51.148;4.104;2023-04-07T05:47:23;103.47;;;40.40;;
23586;SDS011;11971;51.148;4.104;2023-04-07T05:49:50;99.70;;;40.53;;
23586;SDS011;11971;51.148;4.104;2023-04-07T05:52:17;92.72;;;39.13;;
23586;SDS011;11971;51.148;4.104;2023-04-07T05:54:44;97.88;;;39.80;;
23586;SDS011;11971;51.148;4.104;2023-04-07T05:57:10;94.10;;;38.42;;
23586;SDS011;11971;51.148;4.104;2023-04-07T05:59:37;95.20;;;38.92;;
23586;SDS011;11971;51.148;4.104;2023-04-07T06:02:03;98.70;;;38.67;;
23586;SDS011;11971;51.148;4.104;2023-04-07T06:04:31;99.05;;;38.85;;
23586;SDS011;11971;51.148;4.104;2023-04-07T06:09:25;90.68;;;38.15;;
23586;SDS011;11971;51.148;4.104;2023-04-07T06:11:52;101.88;;;38.08;;
23586;SDS011;11971;51.148;4.104;2023-04-07T06:14:20;95.03;;;37.95;;
23586;SDS011;11971;51.148;4.104;2023-04-07T06:16:47;101.47;;;38.25;;
23586;SDS011;11971;51.148;4.104;2023-04-07T06:19:14;91.15;;;38.33;;
23586;SDS011;11971;51.148;4.104;2023-04-07T06:21:43;94.93;;;38.10;;
23586;SDS011;11971;51.148;4.104;2023-04-07T06:24:09;88.53;;;36.65;;
23586;SDS011;11971;51.148;4.104;2023-04-07T06:26:36;92.57;;;37.67;;
23586;SDS011;11971;51.148;4.104;2023-04-07T06:29:04;86.93;;;35.67;;
23586;SDS011;11971;51.148;4.104;2023-04-07T06:31:31;80.65;;;34.53;;
23586;SDS011;11971;51.148;4.104;2023-04-07T06:33:58;86.30;;;35.28;;
23586;SDS011;11971;51.148;4.104;2023-04-07T06:36:24;82.57;;;33.88;;
23586;SDS011;11971;51.148;4.104;2023-04-07T06:38:53;88.55;;;37.00;;
23586;SDS011;11971;51.148;4.104;2023-04-07T06:41:19;89.75;;;37.58;;
23586;SDS011;11971;51.148;4.104;2023-04-07T06:43:46;94.00;;;36.90;;
23586;SDS011;11971;51.148;4.104;2023-04-07T06:48:42;84.60;;;35.47;;
23586;SDS011;11971;51.148;4.104;2023-04-07T06:51:11;85.35;;;35.50;;
23586;SDS011;11971;51.148;4.104;2023-04-07T06:53:38;90.88;;;36.72;;
23586;SDS011;11971;51.148;4.104;2023-04-07T06:56:07;90.70;;;35.70;;
23586;SDS011;11971;51.148;4.104;2023-04-07T06:58:35;86.20;;;36.65;;
23586;SDS011;11971;51.148;4.104;2023-04-07T07:01:02;85.25;;;35.65;;
23586;SDS011;11971;51.148;4.104;2023-04-07T07:03:29;91.82;;;36.13;;
23586;SDS011;11971;51.148;4.104;2023-04-07T07:05:56;86.47;;;36.17;;
23586;SDS011;11971;51.148;4.104;2023-04-07T07:08:23;80.22;;;34.30;;
23586;SDS011;11971;51.148;4.104;2023-04-07T07:10:49;81.22;;;35.17;;
23586;SDS011;11971;51.148;4.104;2023-04-07T07:13:18;81.90;;;34.70;;
23586;SDS011;11971;51.148;4.104;2023-04-07T07:15:46;81.70;;;34.63;;
23586;SDS011;11971;51.148;4.104;2023-04-07T07:18:12;82.32;;;34.75;;
23586;SDS011;11971;51.148;4.104;2023-04-07T07:20:40;86.65;;;35.00;;
23586;SDS011;11971;51.148;4.104;2023-04-07T07:23:08;81.68;;;34.58;;
23586;SDS011;11971;51.148;4.104;2023-04-07T07:25:35;81.32;;;34.85;;
23586;SDS011;11971;51.148;4.104;2023-04-07T07:28:01;83.20;;;35.38;;
23586;SDS011;11971;51.148;4.104;2023-04-07T07:30:29;85.32;;;36.25;;
23586;SDS011;11971;51.148;4.104;2023-04-07T07:32:56;83.15;;;35.30;;
23586;SDS011;11971;51.148;4.104;2023-04-07T07:35:23;81.82;;;35.03;;
23586;SDS011;11971;51.148;4.104;2023-04-07T07:37:50;88.25;;;35.38;;
23586;SDS011;11971;51.148;4.104;2023-04-07T07:40:17;86.15;;;34.97;;
23586;SDS011;11971;51.148;4.104;2023-04-07T07:42:44;83.22;;;35.28;;
23586;SDS011;11971;51.148;4.104;2023-04-07T07:45:11;82.38;;;35.05;;
23586;SDS011;11971;51.148;4.104;2023-04-07T07:47:39;84.57;;;34.80;;
23586;SDS011;11971;51.148;4.104;2023-04-07T07:50:06;80.82;;;33.95;;
23586;SDS011;11971;51.148;4.104;2023-04-07T07:52:33;83.22;;;34.38;;
23586;SDS011;11971;51.148;4.104;2023-04-07T07:55:00;81.82;;;34.17;;
23586;SDS011;11971;51.148;4.104;2023-04-07T07:57:27;85.07;;;34.60;;
23586;SDS011;11971;51.148;4.104;2023-04-07T07:59:54;83.20;;;34.63;;
23586;SDS011;11971;51.148;4.104;2023-04-07T08:02:21;80.57;;;33.97;;
23586;SDS011;11971;51.148;4.104;2023-04-07T08:04:54;82.50;;;34.13;;
23586;SDS011;11971;51.148;4.104;2023-04-07T08:07:21;83.05;;;34.33;;
23586;SDS011;11971;51.148;4.104;2023-04-07T08:09:48;91.13;;;34.50;;
23586;SDS011;11971;51.148;4.104;2023-04-07T08:12:14;82.65;;;34.97;;
23586;SDS011;11971;51.148;4.104;2023-04-07T08:14:41;86.75;;;34.85;;
23586;SDS011;11971;51.148;4.104;2023-04-07T08:17:08;84.75;;;34.45;;
23586;SDS011;11971;51.148;4.104;2023-04-07T08:19:34;82.82;;;34.35;;
23586;SDS011;11971;51.148;4.104;2023-04-07T08:22:02;85.45;;;34.75;;
23586;SDS011;11971;51.148;4.104;2023-04-07T08:24:29;82.85;;;34.33;;
23586;SDS011;11971;51.148;4.104;2023-04-07T08:26:56;81.72;;;33.83;;
23586;SDS011;11971;51.148;4.104;2023-04-07T08:29:23;86.88;;;34.53;;
23586;SDS011;11971;51.148;4.104;2023-04-07T08:31:50;86.18;;;34.42;;
23586;SDS011;11971;51.148;4.104;2023-04-07T08:34:16;82.57;;;34.30;;
23586;SDS011;11971;51.148;4.104;2023-04-07T08:36:44;85.67;;;34.87;;
23586;SDS011;11971;51.148;4.104;2023-04-07T08:39:12;86.45;;;35.47;;
23586;SDS011;11971;51.148;4.104;2023-04-07T08:41:40;84.38;;;34.17;;
23586;SDS011;11971;51.148;4.104;2023-04-07T08:44:08;84.65;;;34.90;;
23586;SDS011;11971;51.148;4.104;2023-04-07T08:46:36;82.15;;;33.90;;
23586;SDS011;11971;51.148;4.104;2023-04-07T08:49:04;82.25;;;34.17;;
23586;SDS011;11971;51.148;4.104;2023-04-07T08:51:34;83.00;;;33.97;;
23586;SDS011;11971;51.148;4.104;2023-04-07T08:54:04;83.38;;;34.42;;
23586;SDS011;11971;51.148;4.104;2023-04-07T08:56:33;84.20;;;34.50;;
23586;SDS011;11971;51.148;4.104;2023-04-07T08:59:00;81.43;;;34.10;;
23586;SDS011;11971;51.148;4.104;2023-04-07T09:01:27;83.35;;;34.83;;
23586;SDS011;11971;51.148;4.104;2023-04-07T09:03:55;88.97;;;34.70;;
23586;SDS011;11971;51.148;4.104;2023-04-07T09:06:22;84.85;;;34.20;;
23586;SDS011;11971;51.148;4.104;2023-04-07T09:08:49;81.65;;;33.75;;
23586;SDS011;11971;51.148;4.104;2023-04-07T09:11:16;84.03;;;34.13;;
23586;SDS011;11971;51.148;4.104;2023-04-07T09:13:44;84.25;;;34.00;;
23586;SDS011;11971;51.148;4.104;2023-04-07T09:16:10;85.38;;;34.05;;
23586;SDS011;11971;51.148;4.104;2023-04-07T09:18:38;81.00;;;33.65;;
23586;SDS011;11971;51.148;4.104;2023-04-07T09:21:05;80.25;;;33.70;;
23586;SDS011;11971;51.148;4.104;2023-04-07T09:23:32;81.15;;;33.67;;
23586;SDS011;11971;51.148;4.104;2023-04-07T09:26:09;89.45;;;34.10;;
23586;SDS011;11971;51.148;4.104;2023-04-07T09:28:46;81.63;;;33.40;;
23586;SDS011;11971;51.148;4.104;2023-04-07T09:31:14;86.13;;;34.28;;
23586;SDS011;11971;51.148;4.104;2023-04-07T09:33:41;90.78;;;34.83;;
23586;SDS011;11971;51.148;4.104;2023-04-07T09:36:07;81.15;;;33.75;;
23586;SDS011;11971;51.148;4.104;2023-04-07T09:38:34;83.35;;;33.95;;
23586;SDS011;11971;51.148;4.104;2023-04-07T09:41:05;88.32;;;34.50;;
23586;SDS011;11971;51.148;4.104;2023-04-07T09:43:34;88.22;;;34.90;;
23586;SDS011;11971;51.148;4.104;2023-04-07T09:46:10;85.50;;;34.17;;
23586;SDS011;11971;51.148;4.104;2023-04-07T09:48:38;84.10;;;34.35;;
23586;SDS011;11971;51.148;4.104;2023-04-07T09:51:05;89.22;;;34.17;;
23586;SDS011;11971;51.148;4.104;2023-04-07T09:53:43;79.95;;;33.30;;
23586;SDS011;11971;51.148;4.104;2023-04-07T09:56:11;85.72;;;34.05;;
23586;SDS011;11971;51.148;4.104;2023-04-07T09:58:40;84.75;;;34.13;;
23586;SDS011;11971;51.148;4.104;2023-04-07T10:01:07;81.35;;;33.90;;
23586;SDS011;11971;51.148;4.104;2023-04-07T10:03:36;81.38;;;33.97;;
23586;SDS011;11971;51.148;4.104;2023-04-07T10:06:03;78.65;;;33.25;;
23586;SDS011;11971;51.148;4.104;2023-04-07T10:10:59;84.80;;;33.85;;
23586;SDS011;11971;51.148;4.104;2023-04-07T10:13:27;80.97;;;33.88;;
23586;SDS011;11971;51.148;4.104;2023-04-07T10:15:54;82.72;;;34.38;;
23586;SDS011;11971;51.148;4.104;2023-04-07T10:18:22;85.53;;;34.42;;
23586;SDS011;11971;51.148;4.104;2023-04-07T10:20:51;86.80;;;34.65;;
23586;SDS011;11971;51.148;4.104;2023-04-07T10:23:20;82.75;;;33.63;;
23586;SDS011;11971;51.148;4.104;2023-04-07T10:25:52;86.25;;;34.78;;
23586;SDS011;11971;51.148;4.104;2023-04-07T10:28:20;82.13;;;33.83;;
23586;SDS011;11971;51.148;4.104;2023-04-07T10:30:48;85.20;;;34.22;;
23586;SDS011;11971;51.148;4.104;2023-04-07T10:33:15;82.90;;;33.95;;
23586;SDS011;11971;51.148;4.104;2023-04-07T10:38:31;81.72;;;33.75;;
23586;SDS011;11971;51.148;4.104;2023-04-07T10:40:58;82.80;;;33.92;;
23586;SDS011;11971;51.148;4.104;2023-04-07T10:43:37;83.50;;;34.00;;
23586;SDS011;11971;51.148;4.104;2023-04-07T10:46:05;85.85;;;33.75;;
23586;SDS011;11971;51.148;4.104;2023-04-07T10:48:32;79.93;;;33.45;;
23586;SDS011;11971;51.148;4.104;2023-04-07T10:51:13;81.45;;;33.80;;
23586;SDS011;11971;51.148;4.104;2023-04-07T10:57:12;80.72;;;33.42;;
23586;SDS011;11971;51.148;4.104;2023-04-07T10:59:39;81.43;;;33.85;;
23586;SDS011;11971;51.148;4.104;2023-04-07T11:02:32;89.05;;;33.75;;
23586;SDS011;11971;51.148;4.104;2023-04-07T11:07:50;82.70;;;33.45;;
23586;SDS011;11971;51.148;4.104;2023-04-07T11:10:19;80.75;;;33.35;;
23586;SDS011;11971;51.148;4.104;2023-04-07T11:13:03;80.72;;;33.40;;
23586;SDS011;11971;51.148;4.104;2023-04-07T11:15:31;80.43;;;33.17;;
23586;SDS011;11971;51.148;4.104;2023-04-07T11:18:06;81.97;;;33.55;;
23586;SDS011;11971;51.148;4.104;2023-04-07T11:20:41;85.00;;;34.38;;
23586;SDS011;11971;51.148;4.104;2023-04-07T11:23:10;84.60;;;33.88;;
23586;SDS011;11971;51.148;4.104;2023-04-07T11:25:37;80.82;;;33.55;;
23586;SDS011;11971;51.148;4.104;2023-04-07T11:28:03;82.80;;;33.95;;
23586;SDS011;11971;51.148;4.104;2023-04-07T11:30:30;80.93;;;33.50;;
23586;SDS011;11971;51.148;4.104;2023-04-07T11:33:00;84.60;;;33.38;;
23586;SDS011;11971;51.148;4.104;2023-04-07T11:35:27;81.45;;;33.63;;
23586;SDS011;11971;51.148;4.104;2023-04-07T11:37:56;83.03;;;33.35;;
23586;SDS011;11971;51.148;4.104;2023-04-07T11:40:34;80.35;;;33.67;;
23586;SDS011;11971;51.148;4.104;2023-04-07T11:43:02;84.15;;;33.65;;
23586;SDS011;11971;51.148;4.104;2023-04-07T11:45:29;87.13;;;34.00;;
23586;SDS011;11971;51.148;4.104;2023-04-07T11:47:56;81.90;;;33.88;;
23586;SDS011;11971;51.148;4.104;2023-04-07T11:53:13;79.90;;;33.20;;
23586;SDS011;11971;51.148;4.104;2023-04-07T11:55:41;79.15;;;33.20;;
23586;SDS011;11971;51.148;4.104;2023-04-07T11:58:07;79.10;;;33.03;;
23586;SDS011;11971;51.148;4.104;2023-04-07T12:00:51;81.80;;;34.00;;
23586;SDS011;11971;51.148;4.104;2023-04-07T12:03:18;80.25;;;33.08;;
23586;SDS011;11971;51.148;4.104;2023-04-07T12:05:45;80.75;;;33.67;;
23586;SDS011;11971;51.148;4.104;2023-04-07T12:08:12;83.55;;;33.88;;
23586;SDS011;11971;51.148;4.104;2023-04-07T12:10:40;82.28;;;34.05;;
23586;SDS011;11971;51.148;4.104;2023-04-07T12:13:07;79.05;;;32.97;;
23586;SDS011;11971;51.148;4.104;2023-04-07T12:15:34;81.88;;;32.75;;
23586;SDS011;11971;51.148;4.104;2023-04-07T12:18:02;83.72;;;34.97;;
23586;SDS011;11971;51.148;4.104;2023-04-07T12:20:28;80.45;;;33.80;;
23586;SDS011;11971;51.148;4.104;2023-04-07T12:22:55;86.53;;;34.97;;
23586;SDS011;11971;51.148;4.104;2023-04-07T12:25:22;87.07;;;35.08;;
23586;SDS011;11971;51.148;4.104;2023-04-07T12:27:51;86.15;;;34.33;;
23586;SDS011;11971;51.148;4.104;2023-04-07T12:30:17;81.30;;;33.35;;
23586;SDS011;11971;51.148;4.104;2023-04-07T12:32:45;82.30;;;34.75;;
23586;SDS011;11971;51.148;4.104;2023-04-07T12:35:11;82.47;;;34.45;;
23586;SDS011;11971;51.148;4.104;2023-04-07T12:37:38;81.78;;;33.90;;
23586;SDS011;11971;51.148;4.104;2023-04-07T12:40:13;87.88;;;33.83;;
23586;SDS011;11971;51.148;4.104;2023-04-07T12:42:41;82.60;;;35.10;;
23586;SDS011;11971;51.148;4.104;2023-04-07T12:45:10;81.00;;;34.05;;
23586;SDS011;11971;51.148;4.104;2023-04-07T12:47:36;80.50;;;33.53;;
23586;SDS011;11971;51.148;4.104;2023-04-07T12:50:03;82.03;;;34.90;;
23586;SDS011;11971;51.148;4.104;2023-04-07T12:52:31;82.97;;;34.85;;
23586;SDS011;11971;51.148;4.104;2023-04-07T12:54:58;79.22;;;33.25;;
23586;SDS011;11971;51.148;4.104;2023-04-07T12:57:25;82.03;;;34.30;;
23586;SDS011;11971;51.148;4.104;2023-04-07T12:59:51;82.57;;;35.25;;
23586;SDS011;11971;51.148;4.104;2023-04-07T13:02:19;81.47;;;33.22;;
23586;SDS011;11971;51.148;4.104;2023-04-07T13:04:46;81.35;;;33.47;;
23586;SDS011;11971;51.148;4.104;2023-04-07T13:07:13;79.97;;;33.42;;
23586;SDS011;11971;51.148;4.104;2023-04-07T13:09:40;79.30;;;33.03;;
23586;SDS011;11971;51.148;4.104;2023-04-07T13:12:07;80.13;;;33.25;;
23586;SDS011;11971;51.148;4.104;2023-04-07T13:14:35;79.35;;;33.03;;
23586;SDS011;11971;51.148;4.104;2023-04-07T13:17:01;78.47;;;32.83;;
23586;SDS011;11971;51.148;4.104;2023-04-07T13:19:29;81.00;;;33.75;;
23586;SDS011;11971;51.148;4.104;2023-04-07T13:21:56;78.67;;;32.77;;
23586;SDS011;11971;51.148;4.104;2023-04-07T13:24:23;78.68;;;32.67;;
23586;SDS011;11971;51.148;4.104;2023-04-07T13:26:51;78.70;;;32.97;;
23586;SDS011;11971;51.148;4.104;2023-04-07T13:29:18;78.18;;;32.60;;
23586;SDS011;11971;51.148;4.104;2023-04-07T13:31:45;78.72;;;32.78;;
23586;SDS011;11971;51.148;4.104;2023-04-07T13:34:12;80.15;;;33.13;;
23586;SDS011;11971;51.148;4.104;2023-04-07T13:36:40;79.32;;;33.05;;
23586;SDS011;11971;51.148;4.104;2023-04-07T13:39:07;86.85;;;33.75;;
23586;SDS011;11971;51.148;4.104;2023-04-07T13:41:34;80.75;;;33.67;;
23586;SDS011;11971;51.148;4.104;2023-04-07T13:44:00;80.20;;;33.40;;
23586;SDS011;11971;51.148;4.104;2023-04-07T13:46:28;81.80;;;33.45;;
23586;SDS011;11971;51.148;4.104;2023-04-07T13:48:55;82.18;;;33.15;;
23586;SDS011;11971;51.148;4.104;2023-04-07T13:51:21;80.15;;;33.08;;
23586;SDS011;11971;51.148;4.104;2023-04-07T13:53:49;79.75;;;33.35;;
23586;SDS011;11971;51.148;4.104;2023-04-07T13:56:16;84.80;;;33.53;;
23586;SDS011;11971;51.148;4.104;2023-04-07T13:58:43;78.50;;;32.95;;
23586;SDS011;11971;51.148;4.104;2023-04-07T14:01:10;81.80;;;33.10;;
23586;SDS011;11971;51.148;4.104;2023-04-07T14:03:36;78.75;;;32.72;;
23586;SDS011;11971;51.148;4.104;2023-04-07T14:06:03;80.13;;;32.75;;
23586;SDS011;11971;51.148;4.104;2023-04-07T14:08:29;78.78;;;32.78;;
23586;SDS011;11971;51.148;4.104;2023-04-07T14:10:57;80.35;;;33.00;;
23586;SDS011;11971;51.148;4.104;2023-04-07T14:13:24;79.60;;;33.10;;
23586;SDS011;11971;51.148;4.104;2023-04-07T14:15:51;79.72;;;33.38;;
23586;SDS011;11971;51.148;4.104;2023-04-07T14:18:18;81.28;;;33.35;;
23586;SDS011;11971;51.148;4.104;2023-04-07T14:20:45;79.70;;;32.92;;
23586;SDS011;11971;51.148;4.104;2023-04-07T14:23:12;79.45;;;32.85;;
23586;SDS011;11971;51.148;4.104;2023-04-07T14:25:38;80.00;;;33.22;;
23586;SDS011;11971;51.148;4.104;2023-04-07T14:28:06;79.20;;;33.30;;
23586;SDS011;11971;51.148;4.104;2023-04-07T14:30:34;80.32;;;33.67;;
23586;SDS011;11971;51.148;4.104;2023-04-07T14:33:02;81.32;;;33.20;;
23586;SDS011;11971;51.148;4.104;2023-04-07T14:35:29;83.15;;;33.50;;
23586;SDS011;11971;51.148;4.104;2023-04-07T14:37:56;81.63;;;33.17;;
23586;SDS011;11971;51.148;4.104;2023-04-07T14:40:22;81.13;;;33.72;;
23586;SDS011;11971;51.148;4.104;2023-04-07T14:42:49;86.82;;;33.65;;
23586;SDS011;11971;51.148;4.104;2023-04-07T14:45:17;80.28;;;33.15;;